sensor_id;sensor_type;location;lat;lon;timestamp;P1;durP1;ratioP1;P2;durP2;ratioP2
68224;SDS011;57497;43.322;21.932;2022-11-04T00:00:35;130;;;56.7;;
68224;SDS011;57497;43.322;21.932;2022-11-04T00:05:36;127.7;;;59.8;;
68224;SDS011;57497;43.322;21.932;2022-11-04T00:10:33;144.2;;;65.7;;
68224;SDS011;57497;43.322;21.932;2022-11-04T00:15:35;129;;;61.4;;
68224;SDS011;57497;43.322;21.932;2022-11-04T00:20:33;144;;;57.7;;
68224;SDS011;57497;43.322;21.932;2022-11-04T00:25:34;107.8;;;57.1;;
68224;SDS011;57497;43.322;21.932;2022-11-04T00:30:34;115.2;;;61.6;;
68224;SDS011;57497;43.322;21.932;2022-11-04T00:35:34;122.4;;;61.9;;
68224;SDS011;57497;43.322;21.932;2022-11-04T00:40:33;147.7;;;63.2;;
68224;SDS011;57497;43.322;21.932;2022-11-04T00:45:33;138.9;;;63.6;;
68224;SDS011;57497;43.322;21.932;2022-11-04T00:50:33;125.6;;;58.2;;
68224;SDS011;57497;43.322;21.932;2022-11-04T00:55:33;151.7;;;61.7;;
68224;SDS011;57497;43.322;21.932;2022-11-04T01:00:34;118.7;;;61.7;;
68224;SDS011;57497;43.322;21.932;2022-11-04T01:05:35;116.7;;;55.5;;
68224;SDS011;57497;43.322;21.932;2022-11-04T01:10:34;109.7;;;52.2;;
68224;SDS011;57497;43.322;21.932;2022-11-04T01:15:33;108.5;;;47.1;;
68224;SDS011;57497;43.322;21.932;2022-11-04T01:20:33;91;;;49.4;;
68224;SDS011;57497;43.322;21.932;2022-11-04T01:25:35;109;;;48.3;;
68224;SDS011;57497;43.322;21.932;2022-11-04T01:30:34;93.5;;;48.1;;
68224;SDS011;57497;43.322;21.932;2022-11-04T01:35:33;104.7;;;47.4;;
68224;SDS011;57497;43.322;21.932;2022-11-04T01:40:35;88.7;;;48;;
68224;SDS011;57497;43.322;21.932;2022-11-04T01:45:33;123.4;;;47.4;;
68224;SDS011;57497;43.322;21.932;2022-11-04T01:50:33;104.6;;;48;;
68224;SDS011;57497;43.322;21.932;2022-11-04T01:55:33;108.7;;;49.2;;
68224;SDS011;57497;43.322;21.932;2022-11-04T02:00:33;107.7;;;48.2;;
68224;SDS011;57497;43.322;21.932;2022-11-04T02:05:33;81.4;;;40.5;;
68224;SDS011;57497;43.322;21.932;2022-11-04T02:10:33;85.5;;;40.3;;
68224;SDS011;57497;43.322;21.932;2022-11-04T02:15:36;66.2;;;35.6;;
68224;SDS011;57497;43.322;21.932;2022-11-04T02:20:39;71.3;;;38;;
68224;SDS011;57497;43.322;21.932;2022-11-04T02:25:39;65.9;;;37.1;;
68224;SDS011;57497;43.322;21.932;2022-11-04T02:30:33;81.8;;;34.1;;
68224;SDS011;57497;43.322;21.932;2022-11-04T02:35:37;68.5;;;35.1;;
68224;SDS011;57497;43.322;21.932;2022-11-04T02:40:34;63.1;;;35.3;;
68224;SDS011;57497;43.322;21.932;2022-11-04T02:45:35;64.5;;;34.3;;
68224;SDS011;57497;43.322;21.932;2022-11-04T02:50:34;60;;;33.4;;
68224;SDS011;57497;43.322;21.932;2022-11-04T02:55:34;84.7;;;42.1;;
68224;SDS011;57497;43.322;21.932;2022-11-04T03:00:33;78;;;38.4;;
68224;SDS011;57497;43.322;21.932;2022-11-04T03:05:34;69.2;;;38.4;;
68224;SDS011;57497;43.322;21.932;2022-11-04T03:10:34;55.2;;;33;;
68224;SDS011;57497;43.322;21.932;2022-11-04T03:15:33;66.7;;;38.1;;
68224;SDS011;57497;43.322;21.932;2022-11-04T03:20:33;80.3;;;39.6;;
68224;SDS011;57497;43.322;21.932;2022-11-04T03:25:35;87.4;;;38.9;;
68224;SDS011;57497;43.322;21.932;2022-11-04T03:30:35;65.7;;;38.5;;
68224;SDS011;57497;43.322;21.932;2022-11-04T03:35:34;67.4;;;39.5;;
68224;SDS011;57497;43.322;21.932;2022-11-04T03:40:33;59.3;;;34.8;;
68224;SDS011;57497;43.322;21.932;2022-11-04T03:45:33;58.8;;;34.8;;
68224;SDS011;57497;43.322;21.932;2022-11-04T03:50:38;73.7;;;39.4;;
68224;SDS011;57497;43.322;21.932;2022-11-04T03:55:34;72;;;37.9;;
68224;SDS011;57497;43.322;21.932;2022-11-04T04:00:35;65.7;;;33.9;;
68224;SDS011;57497;43.322;21.932;2022-11-04T04:05:34;67.2;;;34.8;;
68224;SDS011;57497;43.322;21.932;2022-11-04T04:10:36;96.8;;;35.3;;
68224;SDS011;57497;43.322;21.932;2022-11-04T04:15:34;66.6;;;31.6;;
68224;SDS011;57497;43.322;21.932;2022-11-04T04:20:34;67.5;;;33.9;;
68224;SDS011;57497;43.322;21.932;2022-11-04T04:25:33;56.3;;;33.9;;
68224;SDS011;57497;43.322;21.932;2022-11-04T04:30:33;61.3;;;32.3;;
68224;SDS011;57497;43.322;21.932;2022-11-04T04:35:34;73.5;;;35.5;;
68224;SDS011;57497;43.322;21.932;2022-11-04T04:40:33;60.8;;;34.9;;
68224;SDS011;57497;43.322;21.932;2022-11-04T04:45:33;53;;;28.8;;
68224;SDS011;57497;43.322;21.932;2022-11-04T04:50:34;103;;;44.6;;
68224;SDS011;57497;43.322;21.932;2022-11-04T04:55:33;129.6;;;53.8;;
68224;SDS011;57497;43.322;21.932;2022-11-04T05:00:34;119.8;;;52;;
68224;SDS011;57497;43.322;21.932;2022-11-04T05:05:34;118;;;57.7;;
68224;SDS011;57497;43.322;21.932;2022-11-04T05:10:33;123.3;;;58;;
68224;SDS011;57497;43.322;21.932;2022-11-04T05:15:33;129.6;;;55.4;;
68224;SDS011;57497;43.322;21.932;2022-11-04T05:20:33;115.8;;;55;;
68224;SDS011;57497;43.322;21.932;2022-11-04T05:25:33;123.9;;;56.8;;
68224;SDS011;57497;43.322;21.932;2022-11-04T05:30:33;127.5;;;56.6;;
68224;SDS011;57497;43.322;21.932;2022-11-04T05:35:33;104.2;;;53;;
68224;SDS011;57497;43.322;21.932;2022-11-04T05:40:33;62.1;;;34.3;;
68224;SDS011;57497;43.322;21.932;2022-11-04T05:45:32;105.8;;;45.2;;
68224;SDS011;57497;43.322;21.932;2022-11-04T05:50:33;137.5;;;57;;
68224;SDS011;57497;43.322;21.932;2022-11-04T05:55:33;88.1;;;51.6;;
68224;SDS011;57497;43.322;21.932;2022-11-04T06:00:34;98.6;;;48.6;;
68224;SDS011;57497;43.322;21.932;2022-11-04T06:05:33;98.5;;;51.7;;
68224;SDS011;57497;43.322;21.932;2022-11-04T06:10:33;99.8;;;49;;
68224;SDS011;57497;43.322;21.932;2022-11-04T06:15:34;105;;;53.7;;
68224;SDS011;57497;43.322;21.932;2022-11-04T06:20:33;93.9;;;54;;
68224;SDS011;57497;43.322;21.932;2022-11-04T06:25:33;93.9;;;54.7;;
68224;SDS011;57497;43.322;21.932;2022-11-04T06:30:34;94.6;;;47.2;;
68224;SDS011;57497;43.322;21.932;2022-11-04T06:35:33;74.9;;;44.2;;
68224;SDS011;57497;43.322;21.932;2022-11-04T06:40:33;91.3;;;47.6;;
68224;SDS011;57497;43.322;21.932;2022-11-04T06:45:33;95.6;;;46.7;;
68224;SDS011;57497;43.322;21.932;2022-11-04T06:50:33;78.7;;;44.1;;
68224;SDS011;57497;43.322;21.932;2022-11-04T06:55:33;91;;;52.8;;
68224;SDS011;57497;43.322;21.932;2022-11-04T07:00:34;96;;;50.7;;
68224;SDS011;57497;43.322;21.932;2022-11-04T07:05:33;72.8;;;44.6;;
68224;SDS011;57497;43.322;21.932;2022-11-04T07:10:33;91.1;;;48.6;;
68224;SDS011;57497;43.322;21.932;2022-11-04T07:15:33;85;;;45.6;;
68224;SDS011;57497;43.322;21.932;2022-11-04T07:20:33;79.2;;;40.9;;
68224;SDS011;57497;43.322;21.932;2022-11-04T07:25:33;65.7;;;41.3;;
68224;SDS011;57497;43.322;21.932;2022-11-04T07:30:33;74.4;;;40.8;;
68224;SDS011;57497;43.322;21.932;2022-11-04T07:35:33;74.4;;;43.2;;
68224;SDS011;57497;43.322;21.932;2022-11-04T07:40:33;73.5;;;42.7;;
68224;SDS011;57497;43.322;21.932;2022-11-04T07:45:33;73.1;;;40.3;;
68224;SDS011;57497;43.322;21.932;2022-11-04T07:50:33;55.6;;;37.9;;
68224;SDS011;57497;43.322;21.932;2022-11-04T07:55:35;68.9;;;41.8;;
68224;SDS011;57497;43.322;21.932;2022-11-04T08:00:33;79;;;40.8;;
68224;SDS011;57497;43.322;21.932;2022-11-04T08:05:33;60.4;;;36.5;;
68224;SDS011;57497;43.322;21.932;2022-11-04T08:10:33;67;;;44.3;;
68224;SDS011;57497;43.322;21.932;2022-11-04T08:15:34;83.2;;;40.7;;
68224;SDS011;57497;43.322;21.932;2022-11-04T08:20:33;72.8;;;38.7;;
68224;SDS011;57497;43.322;21.932;2022-11-04T08:25:33;70.1;;;39.5;;
68224;SDS011;57497;43.322;21.932;2022-11-04T08:30:32;80.2;;;37.3;;
68224;SDS011;57497;43.322;21.932;2022-11-04T08:35:33;76.6;;;40.9;;
68224;SDS011;57497;43.322;21.932;2022-11-04T08:40:34;83.1;;;40.9;;
68224;SDS011;57497;43.322;21.932;2022-11-04T08:45:33;64.4;;;37.6;;
68224;SDS011;57497;43.322;21.932;2022-11-04T08:50:33;60.8;;;39;;
68224;SDS011;57497;43.322;21.932;2022-11-04T08:55:33;92;;;39.6;;
68224;SDS011;57497;43.322;21.932;2022-11-04T09:00:34;68.9;;;38.3;;
68224;SDS011;57497;43.322;21.932;2022-11-04T09:05:33;59.1;;;33.1;;
68224;SDS011;57497;43.322;21.932;2022-11-04T09:10:32;70.6;;;34.5;;
68224;SDS011;57497;43.322;21.932;2022-11-04T09:15:33;56.9;;;37.8;;
68224;SDS011;57497;43.322;21.932;2022-11-04T09:20:33;48.3;;;27.4;;
68224;SDS011;57497;43.322;21.932;2022-11-04T09:25:33;62.7;;;26.2;;
68224;SDS011;57497;43.322;21.932;2022-11-04T09:30:33;46.9;;;25.7;;
68224;SDS011;57497;43.322;21.932;2022-11-04T09:35:33;47.4;;;22.3;;
68224;SDS011;57497;43.322;21.932;2022-11-04T09:40:33;25.6;;;15.5;;
68224;SDS011;57497;43.322;21.932;2022-11-04T09:45:33;50.3;;;22.4;;
68224;SDS011;57497;43.322;21.932;2022-11-04T09:50:35;23.5;;;15.6;;
68224;SDS011;57497;43.322;21.932;2022-11-04T09:55:34;23.4;;;12.6;;
68224;SDS011;57497;43.322;21.932;2022-11-04T10:00:33;25.5;;;13.1;;
68224;SDS011;57497;43.322;21.932;2022-11-04T10:05:36;27;;;13.6;;
68224;SDS011;57497;43.322;21.932;2022-11-04T10:10:34;27.3;;;12.4;;
68224;SDS011;57497;43.322;21.932;2022-11-04T10:16:08;31.7;;;14.5;;
68224;SDS011;57497;43.322;21.932;2022-11-04T10:20:37;17.8;;;12.1;;
68224;SDS011;57497;43.322;21.932;2022-11-04T10:25:35;26.6;;;15.7;;
68224;SDS011;57497;43.322;21.932;2022-11-04T10:30:33;25.6;;;14.1;;
68224;SDS011;57497;43.322;21.932;2022-11-04T10:35:34;43.1;;;18.7;;
68224;SDS011;57497;43.322;21.932;2022-11-04T10:40:35;29.3;;;19.2;;
68224;SDS011;57497;43.322;21.932;2022-11-04T10:45:35;28.8;;;17.8;;
68224;SDS011;57497;43.322;21.932;2022-11-04T10:50:33;26.5;;;18.6;;
68224;SDS011;57497;43.322;21.932;2022-11-04T10:55:34;39.1;;;22.6;;
68224;SDS011;57497;43.322;21.932;2022-11-04T11:00:34;38.3;;;24.3;;
68224;SDS011;57497;43.322;21.932;2022-11-04T11:05:32;46.3;;;30.7;;
68224;SDS011;57497;43.322;21.932;2022-11-04T11:10:33;57.3;;;33.9;;
68224;SDS011;57497;43.322;21.932;2022-11-04T11:15:34;64.1;;;30;;
68224;SDS011;57497;43.322;21.932;2022-11-04T11:20:33;67.7;;;33.4;;
68224;SDS011;57497;43.322;21.932;2022-11-04T11:25:33;62;;;38;;
68224;SDS011;57497;43.322;21.932;2022-11-04T11:30:34;65.8;;;36.2;;
68224;SDS011;57497;43.322;21.932;2022-11-04T11:35:33;71.1;;;37.2;;
68224;SDS011;57497;43.322;21.932;2022-11-04T11:40:34;77.2;;;37.3;;
68224;SDS011;57497;43.322;21.932;2022-11-04T11:45:33;52;;;32.8;;
68224;SDS011;57497;43.322;21.932;2022-11-04T11:50:33;57.4;;;30.6;;
68224;SDS011;57497;43.322;21.932;2022-11-04T11:55:33;51.4;;;25;;
68224;SDS011;57497;43.322;21.932;2022-11-04T12:00:34;36.7;;;21.6;;
68224;SDS011;57497;43.322;21.932;2022-11-04T12:05:34;57.6;;;25.6;;
68224;SDS011;57497;43.322;21.932;2022-11-04T12:10:34;46.7;;;24.4;;
68224;SDS011;57497;43.322;21.932;2022-11-04T12:15:37;46.2;;;26.9;;
68224;SDS011;57497;43.322;21.932;2022-11-04T12:20:37;51.6;;;27.5;;
68224;SDS011;57497;43.322;21.932;2022-11-04T12:25:34;46.7;;;25.9;;
68224;SDS011;57497;43.322;21.932;2022-11-04T12:30:34;37.4;;;22.3;;
68224;SDS011;57497;43.322;21.932;2022-11-04T12:35:38;40.7;;;22.4;;
68224;SDS011;57497;43.322;21.932;2022-11-04T12:40:34;35.8;;;21.4;;
68224;SDS011;57497;43.322;21.932;2022-11-04T12:45:37;40.2;;;25.2;;
68224;SDS011;57497;43.322;21.932;2022-11-04T12:50:36;35.4;;;23;;
68224;SDS011;57497;43.322;21.932;2022-11-04T12:55:34;42.7;;;21.2;;
68224;SDS011;57497;43.322;21.932;2022-11-04T13:00:34;33.5;;;17.3;;
68224;SDS011;57497;43.322;21.932;2022-11-04T13:05:36;40.1;;;26.3;;
68224;SDS011;57497;43.322;21.932;2022-11-04T13:10:37;49.5;;;24.4;;
68224;SDS011;57497;43.322;21.932;2022-11-04T13:15:35;49.4;;;31.6;;
68224;SDS011;57497;43.322;21.932;2022-11-04T13:20:35;44.5;;;22.9;;
68224;SDS011;57497;43.322;21.932;2022-11-04T13:25:33;31.4;;;19.8;;
68224;SDS011;57497;43.322;21.932;2022-11-04T13:30:34;50.8;;;22.6;;
68224;SDS011;57497;43.322;21.932;2022-11-04T13:35:36;55.3;;;28.5;;
68224;SDS011;57497;43.322;21.932;2022-11-04T13:40:35;30.5;;;21.8;;
68224;SDS011;57497;43.322;21.932;2022-11-04T13:45:34;31.3;;;14.6;;
68224;SDS011;57497;43.322;21.932;2022-11-04T13:50:34;43.3;;;16.6;;
68224;SDS011;57497;43.322;21.932;2022-11-04T13:55:33;17.1;;;11.4;;
68224;SDS011;57497;43.322;21.932;2022-11-04T14:00:34;27.1;;;11.3;;
68224;SDS011;57497;43.322;21.932;2022-11-04T14:10:36;22.2;;;12.7;;
68224;SDS011;57497;43.322;21.932;2022-11-04T14:16:07;30.6;;;8.2;;
68224;SDS011;57497;43.322;21.932;2022-11-04T14:20:33;19.6;;;7.8;;
68224;SDS011;57497;43.322;21.932;2022-11-04T14:25:35;12.2;;;8.9;;
68224;SDS011;57497;43.322;21.932;2022-11-04T14:30:37;13;;;6.4;;
68224;SDS011;57497;43.322;21.932;2022-11-04T14:35:33;27.1;;;7.7;;
68224;SDS011;57497;43.322;21.932;2022-11-04T14:40:51;11;;;6.3;;
68224;SDS011;57497;43.322;21.932;2022-11-04T14:45:36;13.9;;;6.6;;
68224;SDS011;57497;43.322;21.932;2022-11-04T14:50:33;19.9;;;9.4;;
68224;SDS011;57497;43.322;21.932;2022-11-04T14:55:33;17.9;;;7.6;;
68224;SDS011;57497;43.322;21.932;2022-11-04T15:00:34;26.9;;;8.1;;
68224;SDS011;57497;43.322;21.932;2022-11-04T15:05:33;32.8;;;8.2;;
68224;SDS011;57497;43.322;21.932;2022-11-04T15:10:33;17;;;7.5;;
68224;SDS011;57497;43.322;21.932;2022-11-04T15:15:34;29.7;;;6.4;;
68224;SDS011;57497;43.322;21.932;2022-11-04T15:20:34;18.6;;;7.1;;
68224;SDS011;57497;43.322;21.932;2022-11-04T15:25:33;46.1;;;11.9;;
68224;SDS011;57497;43.322;21.932;2022-11-04T15:30:33;19.2;;;9;;
68224;SDS011;57497;43.322;21.932;2022-11-04T15:35:33;38.9;;;10.7;;
68224;SDS011;57497;43.322;21.932;2022-11-04T15:40:33;31.7;;;11.3;;
68224;SDS011;57497;43.322;21.932;2022-11-04T15:45:35;31.8;;;17.4;;
68224;SDS011;57497;43.322;21.932;2022-11-04T15:50:34;31.4;;;16.1;;
68224;SDS011;57497;43.322;21.932;2022-11-04T15:55:33;43.6;;;25.6;;
68224;SDS011;57497;43.322;21.932;2022-11-04T16:00:34;33.8;;;20.7;;
68224;SDS011;57497;43.322;21.932;2022-11-04T16:05:34;45.5;;;20.6;;
68224;SDS011;57497;43.322;21.932;2022-11-04T16:10:34;100.5;;;33.6;;
68224;SDS011;57497;43.322;21.932;2022-11-04T16:15:34;98.8;;;30.2;;
68224;SDS011;57497;43.322;21.932;2022-11-04T16:20:34;56.5;;;31.2;;
68224;SDS011;57497;43.322;21.932;2022-11-04T16:25:33;68.9;;;31.5;;
68224;SDS011;57497;43.322;21.932;2022-11-04T16:30:33;66.5;;;29.4;;
68224;SDS011;57497;43.322;21.932;2022-11-04T16:35:33;58.4;;;29.6;;
68224;SDS011;57497;43.322;21.932;2022-11-04T16:40:33;66.7;;;33.5;;
68224;SDS011;57497;43.322;21.932;2022-11-04T16:45:34;71.6;;;37;;
68224;SDS011;57497;43.322;21.932;2022-11-04T16:50:33;87;;;38.4;;
68224;SDS011;57497;43.322;21.932;2022-11-04T16:55:33;99.9;;;40;;
68224;SDS011;57497;43.322;21.932;2022-11-04T17:00:34;75.3;;;43.7;;
68224;SDS011;57497;43.322;21.932;2022-11-04T17:05:33;126.8;;;48.7;;
68224;SDS011;57497;43.322;21.932;2022-11-04T17:10:33;143.8;;;50.3;;
68224;SDS011;57497;43.322;21.932;2022-11-04T17:15:33;110.8;;;48.9;;
68224;SDS011;57497;43.322;21.932;2022-11-04T17:20:33;90.8;;;49.9;;
68224;SDS011;57497;43.322;21.932;2022-11-04T17:25:33;82.3;;;49.2;;
68224;SDS011;57497;43.322;21.932;2022-11-04T17:30:32;140.2;;;65.2;;
68224;SDS011;57497;43.322;21.932;2022-11-04T17:35:34;143.3;;;56.1;;
68224;SDS011;57497;43.322;21.932;2022-11-04T17:40:33;101.2;;;48.7;;
68224;SDS011;57497;43.322;21.932;2022-11-04T17:45:33;167;;;63.8;;
68224;SDS011;57497;43.322;21.932;2022-11-04T17:50:33;150;;;79.8;;
68224;SDS011;57497;43.322;21.932;2022-11-04T17:55:35;308.9;;;150.2;;
68224;SDS011;57497;43.322;21.932;2022-11-04T18:00:34;235.9;;;132;;
68224;SDS011;57497;43.322;21.932;2022-11-04T18:05:33;146;;;75.9;;
68224;SDS011;57497;43.322;21.932;2022-11-04T18:10:33;189.3;;;75.3;;
68224;SDS011;57497;43.322;21.932;2022-11-04T18:15:32;180.7;;;86.4;;
68224;SDS011;57497;43.322;21.932;2022-11-04T18:20:33;222.6;;;119.2;;
68224;SDS011;57497;43.322;21.932;2022-11-04T18:25:33;181.6;;;93.8;;
68224;SDS011;57497;43.322;21.932;2022-11-04T18:30:33;240.9;;;112.9;;
68224;SDS011;57497;43.322;21.932;2022-11-04T18:35:33;146.6;;;76.8;;
68224;SDS011;57497;43.322;21.932;2022-11-04T18:40:33;135.5;;;67.8;;
68224;SDS011;57497;43.322;21.932;2022-11-04T18:45:34;248.5;;;142.4;;
68224;SDS011;57497;43.322;21.932;2022-11-04T18:50:33;250.2;;;125.9;;
68224;SDS011;57497;43.322;21.932;2022-11-04T18:55:33;223.9;;;118.1;;
68224;SDS011;57497;43.322;21.932;2022-11-04T19:00:34;153.7;;;81.7;;
68224;SDS011;57497;43.322;21.932;2022-11-04T19:05:33;169.1;;;79.2;;
68224;SDS011;57497;43.322;21.932;2022-11-04T19:10:35;87.7;;;46.7;;
68224;SDS011;57497;43.322;21.932;2022-11-04T19:15:34;52.3;;;34;;
68224;SDS011;57497;43.322;21.932;2022-11-04T19:20:33;51.2;;;28.8;;
68224;SDS011;57497;43.322;21.932;2022-11-04T19:25:33;76.8;;;28.1;;
68224;SDS011;57497;43.322;21.932;2022-11-04T19:30:34;65;;;31.3;;
68224;SDS011;57497;43.322;21.932;2022-11-04T19:35:34;47.4;;;23.3;;
68224;SDS011;57497;43.322;21.932;2022-11-04T19:40:33;55;;;25.6;;
68224;SDS011;57497;43.322;21.932;2022-11-04T19:45:33;85;;;36.7;;
68224;SDS011;57497;43.322;21.932;2022-11-04T19:50:36;64.7;;;37;;
68224;SDS011;57497;43.322;21.932;2022-11-04T19:55:33;54.9;;;34.6;;
68224;SDS011;57497;43.322;21.932;2022-11-04T20:00:34;86.4;;;43.8;;
68224;SDS011;57497;43.322;21.932;2022-11-04T20:05:35;69.2;;;40.2;;
68224;SDS011;57497;43.322;21.932;2022-11-04T20:10:34;129;;;46.4;;
68224;SDS011;57497;43.322;21.932;2022-11-04T20:15:33;84.4;;;40.9;;
68224;SDS011;57497;43.322;21.932;2022-11-04T20:20:33;89.5;;;44.6;;
68224;SDS011;57497;43.322;21.932;2022-11-04T20:25:33;132.8;;;56.6;;
68224;SDS011;57497;43.322;21.932;2022-11-04T20:30:34;87;;;53.1;;
68224;SDS011;57497;43.322;21.932;2022-11-04T20:35:34;86.5;;;45.8;;
68224;SDS011;57497;43.322;21.932;2022-11-04T20:40:34;88.4;;;49.4;;
68224;SDS011;57497;43.322;21.932;2022-11-04T20:45:33;68.9;;;39.3;;
68224;SDS011;57497;43.322;21.932;2022-11-04T20:50:34;77.7;;;35;;
68224;SDS011;57497;43.322;21.932;2022-11-04T20:55:33;71.8;;;44.7;;
68224;SDS011;57497;43.322;21.932;2022-11-04T21:00:34;67.6;;;39.3;;
68224;SDS011;57497;43.322;21.932;2022-11-04T21:05:33;61.3;;;37;;
68224;SDS011;57497;43.322;21.932;2022-11-04T21:10:33;101.6;;;39.7;;
68224;SDS011;57497;43.322;21.932;2022-11-04T21:15:33;55.6;;;33.7;;
68224;SDS011;57497;43.322;21.932;2022-11-04T21:20:34;71.2;;;33.5;;
68224;SDS011;57497;43.322;21.932;2022-11-04T21:25:37;52.3;;;30;;
68224;SDS011;57497;43.322;21.932;2022-11-04T21:30:33;92.4;;;38.6;;
68224;SDS011;57497;43.322;21.932;2022-11-04T21:35:33;58.6;;;38.5;;
68224;SDS011;57497;43.322;21.932;2022-11-04T21:40:34;71.5;;;41.4;;
68224;SDS011;57497;43.322;21.932;2022-11-04T21:45:33;66.4;;;39.6;;
68224;SDS011;57497;43.322;21.932;2022-11-04T21:50:33;86.8;;;45;;
68224;SDS011;57497;43.322;21.932;2022-11-04T21:55:33;62.2;;;39.8;;
68224;SDS011;57497;43.322;21.932;2022-11-04T22:00:34;69;;;34.8;;
68224;SDS011;57497;43.322;21.932;2022-11-04T22:05:33;69.3;;;34.7;;
68224;SDS011;57497;43.322;21.932;2022-11-04T22:10:34;59.4;;;38.5;;
68224;SDS011;57497;43.322;21.932;2022-11-04T22:15:33;77.6;;;37.9;;
68224;SDS011;57497;43.322;21.932;2022-11-04T22:20:34;64.5;;;32.3;;
68224;SDS011;57497;43.322;21.932;2022-11-04T22:25:33;58.7;;;34;;
68224;SDS011;57497;43.322;21.932;2022-11-04T22:30:33;64.6;;;38.6;;
68224;SDS011;57497;43.322;21.932;2022-11-04T22:35:34;50.4;;;30;;
68224;SDS011;57497;43.322;21.932;2022-11-04T22:40:33;49.5;;;28.6;;
68224;SDS011;57497;43.322;21.932;2022-11-04T22:45:33;42.4;;;24.3;;
68224;SDS011;57497;43.322;21.932;2022-11-04T22:50:33;41;;;21.1;;
68224;SDS011;57497;43.322;21.932;2022-11-04T22:55:33;40.9;;;21.6;;
68224;SDS011;57497;43.322;21.932;2022-11-04T23:00:33;38.3;;;18.8;;
68224;SDS011;57497;43.322;21.932;2022-11-04T23:05:33;29.6;;;18.5;;
68224;SDS011;57497;43.322;21.932;2022-11-04T23:10:33;36.1;;;17.7;;
68224;SDS011;57497;43.322;21.932;2022-11-04T23:15:33;34.9;;;15.5;;
68224;SDS011;57497;43.322;21.932;2022-11-04T23:20:33;22.1;;;13.9;;
68224;SDS011;57497;43.322;21.932;2022-11-04T23:25:33;26.3;;;17.3;;
68224;SDS011;57497;43.322;21.932;2022-11-04T23:30:35;28.5;;;15.4;;
68224;SDS011;57497;43.322;21.932;2022-11-04T23:35:34;22.7;;;12.5;;
68224;SDS011;57497;43.322;21.932;2022-11-04T23:40:34;18.7;;;13.1;;
68224;SDS011;57497;43.322;21.932;2022-11-04T23:45:33;19.1;;;13.4;;
68224;SDS011;57497;43.322;21.932;2022-11-04T23:50:33;27.6;;;13;;
68224;SDS011;57497;43.322;21.932;2022-11-04T23:55:33;26.7;;;13.1;;
